sensor_id;sensor_type;location;lat;lon;timestamp;temperature;humidity
4856;DHT22;2442;48.676;7.986;2023-10-09T01:24:18;10.20;99.90
4856;DHT22;2442;48.676;7.986;2023-10-09T01:29:15;10.30;99.90
4856;DHT22;2442;48.676;7.986;2023-10-09T01:34:17;10.40;99.90
4856;DHT22;2442;48.676;7.986;2023-10-09T02:04:51;10.30;99.90
4856;DHT22;2442;48.676;7.986;2023-10-09T02:07:22;10.40;99.90
4856;DHT22;2442;48.676;7.986;2023-10-09T02:09:55;10.40;99.90
4856;DHT22;2442;48.676;7.986;2023-10-09T02:12:22;10.40;99.90
4856;DHT22;2442;48.676;7.986;2023-10-09T02:14:50;10.40;99.90
4856;DHT22;2442;48.676;7.986;2023-10-09T02:17:19;10.20;99.90
4856;DHT22;2442;48.676;7.986;2023-10-09T02:19:50;10.20;99.90
4856;DHT22;2442;48.676;7.986;2023-10-09T02:22:17;10.30;99.90
4856;DHT22;2442;48.676;7.986;2023-10-09T02:24:44;10.40;99.90
4856;DHT22;2442;48.676;7.986;2023-10-09T02:32:41;10.70;99.90
4856;DHT22;2442;48.676;7.986;2023-10-09T02:38:16;10.70;99.90
4856;DHT22;2442;48.676;7.986;2023-10-09T02:46:36;10.10;99.90
4856;DHT22;2442;48.676;7.986;2023-10-09T02:49:17;10.20;99.90
4856;DHT22;2442;48.676;7.986;2023-10-09T02:51:46;10.10;99.90
4856;DHT22;2442;48.676;7.986;2023-10-09T02:54:18;10.20;99.90
4856;DHT22;2442;48.676;7.986;2023-10-09T02:56:53;10.10;99.90
4856;DHT22;2442;48.676;7.986;2023-10-09T03:01:59;10.30;99.90
4856;DHT22;2442;48.676;7.986;2023-10-09T03:04:25;10.40;99.90
4856;DHT22;2442;48.676;7.986;2023-10-09T03:06:56;10.40;99.90
4856;DHT22;2442;48.676;7.986;2023-10-09T03:09:23;10.50;99.90
4856;DHT22;2442;48.676;7.986;2023-10-09T03:29:15;10.60;99.90
4856;DHT22;2442;48.676;7.986;2023-10-09T03:34:13;10.60;99.90
4856;DHT22;2442;48.676;7.986;2023-10-09T03:36:40;10.60;99.90
4856;DHT22;2442;48.676;7.986;2023-10-09T03:39:09;10.60;99.90
4856;DHT22;2442;48.676;7.986;2023-10-09T03:41:50;10.60;99.90
4856;DHT22;2442;48.676;7.986;2023-10-09T03:44:19;10.60;99.90
4856;DHT22;2442;48.676;7.986;2023-10-09T03:46:48;10.60;99.90
4856;DHT22;2442;48.676;7.986;2023-10-09T03:49:18;10.60;99.90
4856;DHT22;2442;48.676;7.986;2023-10-09T03:51:49;10.70;99.90
4856;DHT22;2442;48.676;7.986;2023-10-09T03:54:16;10.60;99.90
4856;DHT22;2442;48.676;7.986;2023-10-09T03:56:45;10.60;99.90
4856;DHT22;2442;48.676;7.986;2023-10-09T03:59:15;10.70;99.90
4856;DHT22;2442;48.676;7.986;2023-10-09T04:01:42;10.80;99.90
4856;DHT22;2442;48.676;7.986;2023-10-09T04:04:09;10.80;99.90
4856;DHT22;2442;48.676;7.986;2023-10-09T04:06:40;10.90;99.90
4856;DHT22;2442;48.676;7.986;2023-10-09T04:09:08;11.00;99.90
4856;DHT22;2442;48.676;7.986;2023-10-09T04:11:53;11.00;99.90
4856;DHT22;2442;48.676;7.986;2023-10-09T04:14:39;11.10;99.90
4856;DHT22;2442;48.676;7.986;2023-10-09T04:17:15;11.10;99.90
4856;DHT22;2442;48.676;7.986;2023-10-09T04:19:55;11.10;99.90
4856;DHT22;2442;48.676;7.986;2023-10-09T04:22:38;11.20;99.90
4856;DHT22;2442;48.676;7.986;2023-10-09T04:25:15;11.30;99.90
4856;DHT22;2442;48.676;7.986;2023-10-09T04:27:51;11.30;99.90
4856;DHT22;2442;48.676;7.986;2023-10-09T04:30:26;11.40;99.90
4856;DHT22;2442;48.676;7.986;2023-10-09T04:32:53;11.40;99.90
4856;DHT22;2442;48.676;7.986;2023-10-09T04:35:29;11.40;99.90
4856;DHT22;2442;48.676;7.986;2023-10-09T04:37:58;11.60;99.90
4856;DHT22;2442;48.676;7.986;2023-10-09T04:40:30;11.70;99.90
4856;DHT22;2442;48.676;7.986;2023-10-09T04:43:16;11.70;99.90
4856;DHT22;2442;48.676;7.986;2023-10-09T04:45:47;11.80;99.90
4856;DHT22;2442;48.676;7.986;2023-10-09T04:48:31;12.00;99.90
4856;DHT22;2442;48.676;7.986;2023-10-09T04:51:04;12.00;99.90
4856;DHT22;2442;48.676;7.986;2023-10-09T04:54:00;12.00;99.90
4856;DHT22;2442;48.676;7.986;2023-10-09T04:56:39;12.10;99.90
4856;DHT22;2442;48.676;7.986;2023-10-09T04:59:18;12.10;99.90
4856;DHT22;2442;48.676;7.986;2023-10-09T05:01:50;12.20;99.90
4856;DHT22;2442;48.676;7.986;2023-10-09T05:12:40;12.40;99.90
4856;DHT22;2442;48.676;7.986;2023-10-09T05:15:12;12.30;99.90
4856;DHT22;2442;48.676;7.986;2023-10-09T05:17:39;12.40;99.90
4856;DHT22;2442;48.676;7.986;2023-10-09T05:20:06;12.40;99.90
4856;DHT22;2442;48.676;7.986;2023-10-09T05:23:02;12.50;99.90
4856;DHT22;2442;48.676;7.986;2023-10-09T05:25:50;12.00;99.90
4856;DHT22;2442;48.676;7.986;2023-10-09T05:28:19;12.00;99.90
4856;DHT22;2442;48.676;7.986;2023-10-09T05:30:56;12.10;99.90
4856;DHT22;2442;48.676;7.986;2023-10-09T05:33:32;12.10;99.90
4856;DHT22;2442;48.676;7.986;2023-10-09T05:36:02;12.00;99.90
4856;DHT22;2442;48.676;7.986;2023-10-09T05:38:56;12.10;99.90
4856;DHT22;2442;48.676;7.986;2023-10-09T05:41:43;12.30;99.90
4856;DHT22;2442;48.676;7.986;2023-10-09T05:44:17;12.20;99.90
4856;DHT22;2442;48.676;7.986;2023-10-09T05:47:02;12.20;99.90
4856;DHT22;2442;48.676;7.986;2023-10-09T05:49:47;12.10;99.90
4856;DHT22;2442;48.676;7.986;2023-10-09T05:52:27;12.50;99.90
4856;DHT22;2442;48.676;7.986;2023-10-09T05:55:26;12.30;99.90
4856;DHT22;2442;48.676;7.986;2023-10-09T05:58:12;12.40;99.90
4856;DHT22;2442;48.676;7.986;2023-10-09T06:00:56;12.50;99.90
4856;DHT22;2442;48.676;7.986;2023-10-09T06:03:46;12.40;99.90
4856;DHT22;2442;48.676;7.986;2023-10-09T06:06:19;12.40;99.90
4856;DHT22;2442;48.676;7.986;2023-10-09T06:11:57;12.50;99.90
4856;DHT22;2442;48.676;7.986;2023-10-09T06:14:39;12.60;99.90
4856;DHT22;2442;48.676;7.986;2023-10-09T06:17:30;12.60;99.90
4856;DHT22;2442;48.676;7.986;2023-10-09T06:20:09;12.60;99.90
4856;DHT22;2442;48.676;7.986;2023-10-09T06:22:58;12.50;99.90
4856;DHT22;2442;48.676;7.986;2023-10-09T06:25:29;12.50;99.90
4856;DHT22;2442;48.676;7.986;2023-10-09T06:27:59;12.60;99.90
4856;DHT22;2442;48.676;7.986;2023-10-09T06:30:28;12.70;99.90
4856;DHT22;2442;48.676;7.986;2023-10-09T06:32:59;12.50;99.90
4856;DHT22;2442;48.676;7.986;2023-10-09T06:35:45;12.80;99.90
4856;DHT22;2442;48.676;7.986;2023-10-09T06:38:19;12.80;99.90
4856;DHT22;2442;48.676;7.986;2023-10-09T06:40:49;12.80;99.90
4856;DHT22;2442;48.676;7.986;2023-10-09T06:43:34;12.70;99.90
4856;DHT22;2442;48.676;7.986;2023-10-09T06:46:17;12.90;99.90
4856;DHT22;2442;48.676;7.986;2023-10-09T06:49:15;13.00;99.90
4856;DHT22;2442;48.676;7.986;2023-10-09T06:51:58;13.20;99.90
4856;DHT22;2442;48.676;7.986;2023-10-09T06:54:41;13.10;99.90
4856;DHT22;2442;48.676;7.986;2023-10-09T06:57:16;13.30;99.90
4856;DHT22;2442;48.676;7.986;2023-10-09T07:00:04;13.50;99.90
4856;DHT22;2442;48.676;7.986;2023-10-09T07:02:50;13.40;99.90
4856;DHT22;2442;48.676;7.986;2023-10-09T07:05:18;13.50;99.90
4856;DHT22;2442;48.676;7.986;2023-10-09T07:10:21;13.40;99.90
4856;DHT22;2442;48.676;7.986;2023-10-09T07:12:59;13.70;99.90
4856;DHT22;2442;48.676;7.986;2023-10-09T07:15:27;13.70;99.90
4856;DHT22;2442;48.676;7.986;2023-10-09T07:18:13;13.80;99.90
4856;DHT22;2442;48.676;7.986;2023-10-09T07:20:49;13.90;99.90
4856;DHT22;2442;48.676;7.986;2023-10-09T07:23:26;14.00;99.90
4856;DHT22;2442;48.676;7.986;2023-10-09T07:26:01;14.30;99.90
4856;DHT22;2442;48.676;7.986;2023-10-09T07:28:43;14.30;99.90
4856;DHT22;2442;48.676;7.986;2023-10-09T07:31:17;14.40;99.90
4856;DHT22;2442;48.676;7.986;2023-10-09T07:34:06;14.70;99.90
4856;DHT22;2442;48.676;7.986;2023-10-09T07:36:54;14.80;99.90
4856;DHT22;2442;48.676;7.986;2023-10-09T07:39:22;15.00;99.90
4856;DHT22;2442;48.676;7.986;2023-10-09T07:41:49;15.20;99.90
4856;DHT22;2442;48.676;7.986;2023-10-09T07:44:41;15.50;99.90
4856;DHT22;2442;48.676;7.986;2023-10-09T07:47:18;15.70;99.90
4856;DHT22;2442;48.676;7.986;2023-10-09T07:49:49;15.90;99.90
4856;DHT22;2442;48.676;7.986;2023-10-09T07:52:22;16.00;99.90
4856;DHT22;2442;48.676;7.986;2023-10-09T07:57:27;16.40;99.90
4856;DHT22;2442;48.676;7.986;2023-10-09T08:00:04;16.90;99.90
4856;DHT22;2442;48.676;7.986;2023-10-09T08:02:59;17.20;99.90
4856;DHT22;2442;48.676;7.986;2023-10-09T08:05:28;17.40;99.90
4856;DHT22;2442;48.676;7.986;2023-10-09T08:08:00;17.80;99.90
4856;DHT22;2442;48.676;7.986;2023-10-09T08:13:26;17.50;99.90
4856;DHT22;2442;48.676;7.986;2023-10-09T08:16:10;17.70;99.90
4856;DHT22;2442;48.676;7.986;2023-10-09T08:18:45;18.10;99.90
4856;DHT22;2442;48.676;7.986;2023-10-09T08:21:12;18.20;99.90
4856;DHT22;2442;48.676;7.986;2023-10-09T08:24:07;18.40;99.90
4856;DHT22;2442;48.676;7.986;2023-10-09T08:26:53;18.60;99.90
4856;DHT22;2442;48.676;7.986;2023-10-09T08:29:40;18.80;99.90
4856;DHT22;2442;48.676;7.986;2023-10-09T08:35:04;18.90;99.90
4856;DHT22;2442;48.676;7.986;2023-10-09T08:37:34;19.20;99.90
4856;DHT22;2442;48.676;7.986;2023-10-09T08:40:01;19.20;99.90
4856;DHT22;2442;48.676;7.986;2023-10-09T08:42:32;19.30;99.90
4856;DHT22;2442;48.676;7.986;2023-10-09T08:45:00;19.40;99.90
4856;DHT22;2442;48.676;7.986;2023-10-09T08:47:31;19.50;99.90
4856;DHT22;2442;48.676;7.986;2023-10-09T08:49:58;19.70;99.90
4856;DHT22;2442;48.676;7.986;2023-10-09T08:52:26;19.80;99.90
4856;DHT22;2442;48.676;7.986;2023-10-09T08:54:55;19.90;99.90
4856;DHT22;2442;48.676;7.986;2023-10-09T08:57:21;20.10;99.90
4856;DHT22;2442;48.676;7.986;2023-10-09T08:59:48;20.30;99.90
4856;DHT22;2442;48.676;7.986;2023-10-09T09:02:15;20.40;99.90
4856;DHT22;2442;48.676;7.986;2023-10-09T09:04:42;20.50;99.90
4856;DHT22;2442;48.676;7.986;2023-10-09T09:07:24;20.60;99.90
4856;DHT22;2442;48.676;7.986;2023-10-09T09:09:55;20.60;99.90
4856;DHT22;2442;48.676;7.986;2023-10-09T09:12:25;20.70;99.90
4856;DHT22;2442;48.676;7.986;2023-10-09T09:14:56;20.60;99.90
4856;DHT22;2442;48.676;7.986;2023-10-09T09:17:23;20.70;99.90
4856;DHT22;2442;48.676;7.986;2023-10-09T09:19:56;20.80;99.90
4856;DHT22;2442;48.676;7.986;2023-10-09T09:22:23;20.90;99.90
4856;DHT22;2442;48.676;7.986;2023-10-09T09:24:58;20.90;99.90
4856;DHT22;2442;48.676;7.986;2023-10-09T09:27:44;21.10;99.90
4856;DHT22;2442;48.676;7.986;2023-10-09T09:30:24;21.30;99.90
4856;DHT22;2442;48.676;7.986;2023-10-09T09:32:57;21.40;99.90
4856;DHT22;2442;48.676;7.986;2023-10-09T09:35:37;21.50;99.90
4856;DHT22;2442;48.676;7.986;2023-10-09T09:38:08;21.50;99.90
4856;DHT22;2442;48.676;7.986;2023-10-09T09:40:44;21.50;99.90
4856;DHT22;2442;48.676;7.986;2023-10-09T09:43:11;21.40;99.90
4856;DHT22;2442;48.676;7.986;2023-10-09T09:45:46;21.30;99.90
4856;DHT22;2442;48.676;7.986;2023-10-09T09:48:16;21.30;99.90
4856;DHT22;2442;48.676;7.986;2023-10-09T09:50:43;21.30;99.90
4856;DHT22;2442;48.676;7.986;2023-10-09T09:53:11;21.30;99.90
4856;DHT22;2442;48.676;7.986;2023-10-09T09:55:42;21.30;99.90
4856;DHT22;2442;48.676;7.986;2023-10-09T09:58:17;21.40;99.90
4856;DHT22;2442;48.676;7.986;2023-10-09T10:00:46;21.50;99.90
4856;DHT22;2442;48.676;7.986;2023-10-09T10:03:19;21.80;99.90
4856;DHT22;2442;48.676;7.986;2023-10-09T10:05:47;22.00;99.90
4856;DHT22;2442;48.676;7.986;2023-10-09T10:08:15;22.40;99.90
4856;DHT22;2442;48.676;7.986;2023-10-09T10:10:46;22.40;99.90
4856;DHT22;2442;48.676;7.986;2023-10-09T10:13:15;22.50;99.90
4856;DHT22;2442;48.676;7.986;2023-10-09T10:15:57;22.60;99.90
4856;DHT22;2442;48.676;7.986;2023-10-09T10:18:30;22.80;99.90
4856;DHT22;2442;48.676;7.986;2023-10-09T10:21:09;22.90;99.90
4856;DHT22;2442;48.676;7.986;2023-10-09T10:23:40;22.90;99.90
4856;DHT22;2442;48.676;7.986;2023-10-09T10:26:18;23.20;99.90
4856;DHT22;2442;48.676;7.986;2023-10-09T10:31:52;23.40;99.90
4856;DHT22;2442;48.676;7.986;2023-10-09T10:34:23;23.50;99.90
4856;DHT22;2442;48.676;7.986;2023-10-09T10:36:50;23.70;99.90
4856;DHT22;2442;48.676;7.986;2023-10-09T10:39:24;23.90;99.90
4856;DHT22;2442;48.676;7.986;2023-10-09T10:42:09;23.80;99.90
4856;DHT22;2442;48.676;7.986;2023-10-09T10:44:41;23.90;99.90
4856;DHT22;2442;48.676;7.986;2023-10-09T10:47:11;23.90;99.90
4856;DHT22;2442;48.676;7.986;2023-10-09T10:49:50;23.70;99.90
4856;DHT22;2442;48.676;7.986;2023-10-09T10:52:23;23.70;99.90
4856;DHT22;2442;48.676;7.986;2023-10-09T10:55:07;23.50;99.90
4856;DHT22;2442;48.676;7.986;2023-10-09T10:57:56;23.40;99.90
4856;DHT22;2442;48.676;7.986;2023-10-09T11:00:26;23.30;99.90
4856;DHT22;2442;48.676;7.986;2023-10-09T11:03:16;23.20;99.90
4856;DHT22;2442;48.676;7.986;2023-10-09T11:05:54;23.10;99.90
4856;DHT22;2442;48.676;7.986;2023-10-09T11:08:23;23.10;99.90
4856;DHT22;2442;48.676;7.986;2023-10-09T11:13:42;23.20;99.90
4856;DHT22;2442;48.676;7.986;2023-10-09T11:16:22;23.30;99.90
4856;DHT22;2442;48.676;7.986;2023-10-09T11:19:07;23.30;99.90
4856;DHT22;2442;48.676;7.986;2023-10-09T11:21:49;23.30;99.90
4856;DHT22;2442;48.676;7.986;2023-10-09T11:24:39;23.40;99.90
4856;DHT22;2442;48.676;7.986;2023-10-09T11:27:08;23.50;99.90
4856;DHT22;2442;48.676;7.986;2023-10-09T11:29:48;23.40;99.90
4856;DHT22;2442;48.676;7.986;2023-10-09T11:32:21;23.40;99.90
4856;DHT22;2442;48.676;7.986;2023-10-09T11:34:49;23.30;99.90
4856;DHT22;2442;48.676;7.986;2023-10-09T11:37:34;23.30;99.90
4856;DHT22;2442;48.676;7.986;2023-10-09T11:40:26;23.20;99.90
4856;DHT22;2442;48.676;7.986;2023-10-09T11:42:59;23.30;99.90
4856;DHT22;2442;48.676;7.986;2023-10-09T11:45:28;23.50;99.90
4856;DHT22;2442;48.676;7.986;2023-10-09T11:47:55;23.60;99.90
4856;DHT22;2442;48.676;7.986;2023-10-09T11:50:39;23.70;99.90
4856;DHT22;2442;48.676;7.986;2023-10-09T11:53:08;23.90;99.90
4856;DHT22;2442;48.676;7.986;2023-10-09T11:55:43;24.00;99.90
4856;DHT22;2442;48.676;7.986;2023-10-09T11:58:14;24.00;99.90
4856;DHT22;2442;48.676;7.986;2023-10-09T12:00:50;24.00;99.90
4856;DHT22;2442;48.676;7.986;2023-10-09T12:03:22;24.00;99.90
4856;DHT22;2442;48.676;7.986;2023-10-09T12:05:54;23.90;99.90
4856;DHT22;2442;48.676;7.986;2023-10-09T12:08:29;24.00;99.90
4856;DHT22;2442;48.676;7.986;2023-10-09T12:10:57;24.00;99.90
4856;DHT22;2442;48.676;7.986;2023-10-09T12:13:24;24.10;99.90
4856;DHT22;2442;48.676;7.986;2023-10-09T12:15:52;24.10;99.90
4856;DHT22;2442;48.676;7.986;2023-10-09T12:18:20;24.30;99.90
4856;DHT22;2442;48.676;7.986;2023-10-09T12:20:49;24.70;99.90
4856;DHT22;2442;48.676;7.986;2023-10-09T12:23:21;24.80;99.90
4856;DHT22;2442;48.676;7.986;2023-10-09T12:25:53;24.70;99.90
4856;DHT22;2442;48.676;7.986;2023-10-09T12:28:22;24.80;99.90
4856;DHT22;2442;48.676;7.986;2023-10-09T12:30:49;25.00;99.90
4856;DHT22;2442;48.676;7.986;2023-10-09T12:33:18;25.00;99.90
4856;DHT22;2442;48.676;7.986;2023-10-09T12:35:53;25.00;99.90
4856;DHT22;2442;48.676;7.986;2023-10-09T12:38:25;25.20;99.90
4856;DHT22;2442;48.676;7.986;2023-10-09T12:41:00;25.20;99.90
4856;DHT22;2442;48.676;7.986;2023-10-09T12:43:33;25.30;99.90
4856;DHT22;2442;48.676;7.986;2023-10-09T12:46:04;25.30;99.90
4856;DHT22;2442;48.676;7.986;2023-10-09T12:48:34;25.50;99.90
4856;DHT22;2442;48.676;7.986;2023-10-09T12:51:01;25.80;99.90
4856;DHT22;2442;48.676;7.986;2023-10-09T12:53:31;25.90;99.90
4856;DHT22;2442;48.676;7.986;2023-10-09T12:55:59;26.10;99.90
4856;DHT22;2442;48.676;7.986;2023-10-09T12:58:26;26.20;99.90
4856;DHT22;2442;48.676;7.986;2023-10-09T13:00:53;26.30;99.90
4856;DHT22;2442;48.676;7.986;2023-10-09T13:03:19;26.40;99.90
4856;DHT22;2442;48.676;7.986;2023-10-09T13:05:49;26.40;99.90
4856;DHT22;2442;48.676;7.986;2023-10-09T13:08:20;26.20;99.90
4856;DHT22;2442;48.676;7.986;2023-10-09T13:10:48;26.10;99.90
4856;DHT22;2442;48.676;7.986;2023-10-09T13:13:26;26.00;99.90
4856;DHT22;2442;48.676;7.986;2023-10-09T13:16:05;26.20;99.90
4856;DHT22;2442;48.676;7.986;2023-10-09T13:18:33;26.20;99.90
4856;DHT22;2442;48.676;7.986;2023-10-09T13:21:02;26.30;99.90
4856;DHT22;2442;48.676;7.986;2023-10-09T13:23:30;26.30;99.90
4856;DHT22;2442;48.676;7.986;2023-10-09T13:26:04;26.40;99.90
4856;DHT22;2442;48.676;7.986;2023-10-09T13:28:44;26.30;99.90
4856;DHT22;2442;48.676;7.986;2023-10-09T13:31:12;26.10;99.90
4856;DHT22;2442;48.676;7.986;2023-10-09T13:33:40;26.10;99.90
4856;DHT22;2442;48.676;7.986;2023-10-09T13:36:09;26.10;99.90
4856;DHT22;2442;48.676;7.986;2023-10-09T13:38:43;26.10;99.90
4856;DHT22;2442;48.676;7.986;2023-10-09T13:41:10;26.10;99.90
4856;DHT22;2442;48.676;7.986;2023-10-09T13:43:40;26.00;99.90
4856;DHT22;2442;48.676;7.986;2023-10-09T13:46:08;25.90;99.90
4856;DHT22;2442;48.676;7.986;2023-10-09T13:48:37;25.70;99.90
4856;DHT22;2442;48.676;7.986;2023-10-09T13:51:06;25.50;99.90
4856;DHT22;2442;48.676;7.986;2023-10-09T13:53:40;25.30;99.90
4856;DHT22;2442;48.676;7.986;2023-10-09T13:56:11;25.10;99.90
4856;DHT22;2442;48.676;7.986;2023-10-09T13:58:46;24.90;99.90
4856;DHT22;2442;48.676;7.986;2023-10-09T14:01:14;24.70;99.90
4856;DHT22;2442;48.676;7.986;2023-10-09T14:03:54;24.60;99.90
4856;DHT22;2442;48.676;7.986;2023-10-09T14:06:22;24.60;99.90
4856;DHT22;2442;48.676;7.986;2023-10-09T14:08:57;24.50;99.90
4856;DHT22;2442;48.676;7.986;2023-10-09T14:11:24;24.40;99.90
4856;DHT22;2442;48.676;7.986;2023-10-09T14:13:51;24.20;99.90
4856;DHT22;2442;48.676;7.986;2023-10-09T14:16:18;24.20;99.90
4856;DHT22;2442;48.676;7.986;2023-10-09T14:18:53;24.30;99.90
4856;DHT22;2442;48.676;7.986;2023-10-09T14:21:24;24.40;99.90
4856;DHT22;2442;48.676;7.986;2023-10-09T14:23:56;24.60;99.90
4856;DHT22;2442;48.676;7.986;2023-10-09T14:26:24;24.60;99.90
4856;DHT22;2442;48.676;7.986;2023-10-09T14:28:51;24.70;99.90
4856;DHT22;2442;48.676;7.986;2023-10-09T14:31:19;24.60;99.90
4856;DHT22;2442;48.676;7.986;2023-10-09T14:33:52;24.80;99.90
4856;DHT22;2442;48.676;7.986;2023-10-09T14:36:19;25.00;99.90
4856;DHT22;2442;48.676;7.986;2023-10-09T14:38:48;25.10;99.90
4856;DHT22;2442;48.676;7.986;2023-10-09T14:41:18;25.10;99.90
4856;DHT22;2442;48.676;7.986;2023-10-09T14:43:49;25.10;99.90
4856;DHT22;2442;48.676;7.986;2023-10-09T14:46:16;24.60;99.90
4856;DHT22;2442;48.676;7.986;2023-10-09T14:48:49;24.50;99.90
4856;DHT22;2442;48.676;7.986;2023-10-09T14:51:18;24.40;99.90
4856;DHT22;2442;48.676;7.986;2023-10-09T14:53:54;24.40;99.90
4856;DHT22;2442;48.676;7.986;2023-10-09T14:56:23;24.30;99.90
4856;DHT22;2442;48.676;7.986;2023-10-09T14:58:54;24.30;99.90
4856;DHT22;2442;48.676;7.986;2023-10-09T15:01:23;24.30;99.90
4856;DHT22;2442;48.676;7.986;2023-10-09T15:03:54;24.20;99.90
4856;DHT22;2442;48.676;7.986;2023-10-09T15:06:23;24.10;99.90
4856;DHT22;2442;48.676;7.986;2023-10-09T15:08:52;24.20;99.90
4856;DHT22;2442;48.676;7.986;2023-10-09T15:11:22;24.00;99.90
4856;DHT22;2442;48.676;7.986;2023-10-09T15:13:50;24.20;99.90
4856;DHT22;2442;48.676;7.986;2023-10-09T15:16:18;24.20;99.90
4856;DHT22;2442;48.676;7.986;2023-10-09T15:18:46;24.20;99.90
4856;DHT22;2442;48.676;7.986;2023-10-09T15:21:18;24.10;99.90
4856;DHT22;2442;48.676;7.986;2023-10-09T15:23:48;24.40;99.90
4856;DHT22;2442;48.676;7.986;2023-10-09T15:26:16;24.20;99.90
4856;DHT22;2442;48.676;7.986;2023-10-09T15:28:44;24.20;99.90
4856;DHT22;2442;48.676;7.986;2023-10-09T15:31:11;23.90;99.90
4856;DHT22;2442;48.676;7.986;2023-10-09T15:33:40;23.80;99.90
4856;DHT22;2442;48.676;7.986;2023-10-09T15:36:11;23.70;99.90
4856;DHT22;2442;48.676;7.986;2023-10-09T15:38:38;23.50;99.90
4856;DHT22;2442;48.676;7.986;2023-10-09T15:41:05;23.50;99.90
4856;DHT22;2442;48.676;7.986;2023-10-09T15:43:32;23.40;99.90
4856;DHT22;2442;48.676;7.986;2023-10-09T15:46:00;23.30;99.90
4856;DHT22;2442;48.676;7.986;2023-10-09T15:48:27;23.30;99.90
4856;DHT22;2442;48.676;7.986;2023-10-09T15:50:54;23.20;99.90
4856;DHT22;2442;48.676;7.986;2023-10-09T15:53:22;23.20;99.90
4856;DHT22;2442;48.676;7.986;2023-10-09T15:55:49;23.20;99.90
4856;DHT22;2442;48.676;7.986;2023-10-09T15:58:22;23.20;99.90
4856;DHT22;2442;48.676;7.986;2023-10-09T16:00:50;22.90;99.90
4856;DHT22;2442;48.676;7.986;2023-10-09T16:03:18;23.10;99.90
4856;DHT22;2442;48.676;7.986;2023-10-09T16:05:46;22.90;99.90
4856;DHT22;2442;48.676;7.986;2023-10-09T16:08:13;22.60;99.90
4856;DHT22;2442;48.676;7.986;2023-10-09T16:10:44;22.60;99.90
4856;DHT22;2442;48.676;7.986;2023-10-09T16:13:12;22.60;99.90
4856;DHT22;2442;48.676;7.986;2023-10-09T16:15:40;22.40;99.90
4856;DHT22;2442;48.676;7.986;2023-10-09T16:18:08;22.10;99.90
4856;DHT22;2442;48.676;7.986;2023-10-09T16:20:36;21.80;99.90
4856;DHT22;2442;48.676;7.986;2023-10-09T16:23:03;21.60;99.90
4856;DHT22;2442;48.676;7.986;2023-10-09T16:25:30;21.20;99.90
4856;DHT22;2442;48.676;7.986;2023-10-09T16:28:00;21.10;99.90
4856;DHT22;2442;48.676;7.986;2023-10-09T16:30:28;21.00;99.90
4856;DHT22;2442;48.676;7.986;2023-10-09T16:32:56;21.00;99.90
4856;DHT22;2442;48.676;7.986;2023-10-09T16:35:24;20.80;99.90
4856;DHT22;2442;48.676;7.986;2023-10-09T16:37:52;20.80;99.90
4856;DHT22;2442;48.676;7.986;2023-10-09T16:40:19;20.70;99.90
4856;DHT22;2442;48.676;7.986;2023-10-09T16:42:46;20.70;99.90
4856;DHT22;2442;48.676;7.986;2023-10-09T16:45:15;20.50;99.90
4856;DHT22;2442;48.676;7.986;2023-10-09T16:47:45;20.30;99.90
4856;DHT22;2442;48.676;7.986;2023-10-09T16:50:13;20.10;99.90
4856;DHT22;2442;48.676;7.986;2023-10-09T16:52:41;19.90;99.90
4856;DHT22;2442;48.676;7.986;2023-10-09T16:55:10;19.80;99.90
4856;DHT22;2442;48.676;7.986;2023-10-09T16:57:37;19.80;99.90
4856;DHT22;2442;48.676;7.986;2023-10-09T17:00:07;19.50;99.90
4856;DHT22;2442;48.676;7.986;2023-10-09T17:02:43;19.50;99.90
4856;DHT22;2442;48.676;7.986;2023-10-09T17:05:10;19.40;99.90
4856;DHT22;2442;48.676;7.986;2023-10-09T17:07:38;19.50;99.90
4856;DHT22;2442;48.676;7.986;2023-10-09T17:10:07;18.90;99.90
4856;DHT22;2442;48.676;7.986;2023-10-09T17:12:42;18.90;99.90
4856;DHT22;2442;48.676;7.986;2023-10-09T17:15:12;18.80;99.90
4856;DHT22;2442;48.676;7.986;2023-10-09T17:17:41;18.90;99.90
4856;DHT22;2442;48.676;7.986;2023-10-09T17:20:11;18.60;99.90
4856;DHT22;2442;48.676;7.986;2023-10-09T17:22:39;18.50;99.90
4856;DHT22;2442;48.676;7.986;2023-10-09T17:25:06;17.90;99.90
4856;DHT22;2442;48.676;7.986;2023-10-09T17:27:38;18.10;99.90
4856;DHT22;2442;48.676;7.986;2023-10-09T17:30:08;17.60;99.90
4856;DHT22;2442;48.676;7.986;2023-10-09T17:32:35;17.50;99.90
4856;DHT22;2442;48.676;7.986;2023-10-09T17:35:04;17.80;99.90
4856;DHT22;2442;48.676;7.986;2023-10-09T17:37:34;17.70;99.90
4856;DHT22;2442;48.676;7.986;2023-10-09T17:40:02;17.20;99.90
4856;DHT22;2442;48.676;7.986;2023-10-09T17:42:31;17.40;99.90
4856;DHT22;2442;48.676;7.986;2023-10-09T17:44:58;17.10;99.90
4856;DHT22;2442;48.676;7.986;2023-10-09T17:47:27;17.30;99.90
4856;DHT22;2442;48.676;7.986;2023-10-09T17:49:54;17.30;99.90
4856;DHT22;2442;48.676;7.986;2023-10-09T17:52:24;17.10;99.90
4856;DHT22;2442;48.676;7.986;2023-10-09T17:54:54;17.00;99.90
4856;DHT22;2442;48.676;7.986;2023-10-09T17:57:22;17.00;99.90
4856;DHT22;2442;48.676;7.986;2023-10-09T17:59:48;17.20;99.90
4856;DHT22;2442;48.676;7.986;2023-10-09T18:02:15;17.00;99.90
4856;DHT22;2442;48.676;7.986;2023-10-09T18:04:44;16.70;99.90
4856;DHT22;2442;48.676;7.986;2023-10-09T18:07:11;16.80;99.90
4856;DHT22;2442;48.676;7.986;2023-10-09T18:09:44;16.50;99.90
4856;DHT22;2442;48.676;7.986;2023-10-09T18:12:12;16.50;99.90
4856;DHT22;2442;48.676;7.986;2023-10-09T18:17:11;16.20;99.90
4856;DHT22;2442;48.676;7.986;2023-10-09T18:19:46;15.90;99.90
4856;DHT22;2442;48.676;7.986;2023-10-09T18:22:15;16.10;99.90
4856;DHT22;2442;48.676;7.986;2023-10-09T18:24:42;15.90;99.90
4856;DHT22;2442;48.676;7.986;2023-10-09T18:27:09;15.60;99.90
4856;DHT22;2442;48.676;7.986;2023-10-09T18:29:39;15.70;99.90
4856;DHT22;2442;48.676;7.986;2023-10-09T18:32:06;15.60;99.90
4856;DHT22;2442;48.676;7.986;2023-10-09T18:34:34;15.30;99.90
4856;DHT22;2442;48.676;7.986;2023-10-09T18:37:02;15.40;99.90
4856;DHT22;2442;48.676;7.986;2023-10-09T18:39:32;15.20;99.90
4856;DHT22;2442;48.676;7.986;2023-10-09T18:41:59;15.40;99.90
4856;DHT22;2442;48.676;7.986;2023-10-09T18:44:26;15.00;99.90
4856;DHT22;2442;48.676;7.986;2023-10-09T18:46:54;15.20;99.90
4856;DHT22;2442;48.676;7.986;2023-10-09T18:49:21;15.10;99.90
4856;DHT22;2442;48.676;7.986;2023-10-09T18:51:48;15.20;99.90
4856;DHT22;2442;48.676;7.986;2023-10-09T18:54:16;15.40;99.90
4856;DHT22;2442;48.676;7.986;2023-10-09T18:56:43;15.30;99.90
4856;DHT22;2442;48.676;7.986;2023-10-09T18:59:10;15.20;99.90
4856;DHT22;2442;48.676;7.986;2023-10-09T19:01:39;15.20;99.90
4856;DHT22;2442;48.676;7.986;2023-10-09T19:04:06;15.20;99.90
4856;DHT22;2442;48.676;7.986;2023-10-09T19:06:34;15.30;99.90
4856;DHT22;2442;48.676;7.986;2023-10-09T19:09:02;15.30;99.90
4856;DHT22;2442;48.676;7.986;2023-10-09T19:11:32;15.50;99.90
4856;DHT22;2442;48.676;7.986;2023-10-09T19:13:59;15.70;99.90
4856;DHT22;2442;48.676;7.986;2023-10-09T19:16:26;15.60;99.90
4856;DHT22;2442;48.676;7.986;2023-10-09T19:18:54;15.60;99.90
4856;DHT22;2442;48.676;7.986;2023-10-09T19:23:55;15.90;99.90
4856;DHT22;2442;48.676;7.986;2023-10-09T19:26:23;15.50;99.90
4856;DHT22;2442;48.676;7.986;2023-10-09T19:28:54;15.50;99.90
4856;DHT22;2442;48.676;7.986;2023-10-09T19:31:20;15.50;99.90
4856;DHT22;2442;48.676;7.986;2023-10-09T19:33:48;15.50;99.90
4856;DHT22;2442;48.676;7.986;2023-10-09T19:36:17;15.80;99.90
4856;DHT22;2442;48.676;7.986;2023-10-09T19:38:47;15.70;99.90
4856;DHT22;2442;48.676;7.986;2023-10-09T19:41:16;15.50;99.90